Time;durP1;ratioP1;P1;durP2;ratioP2;P2;SDS_P1;SDS_P2;PMS_P1;PMS_P2;Temp;Humidity;BMP_temperature;BMP_pressure;BME280_temperature;BME280_humidity;BME280_pressure;Samples;Min_cycle;Max_cycle;Signal;HPM_P1;HPM_P2
2022/05/16 00:00:37;;;;;;;5.72;3.40;;;12.60;99.90;;;;;;5097091;28;20324;-57
2022/05/16 00:03:07;;;;;;;7.28;4.88;;;12.60;99.90;;;;;;5096526;28;20232;-56
2022/05/16 00:05:36;;;;;;;8.98;5.43;;;12.50;99.90;;;;;;5096724;28;20202;-57
2022/05/16 00:08:03;;;;;;;5.75;4.18;;;12.50;99.90;;;;;;5096414;28;20259;-57
2022/05/16 00:10:31;;;;;;;12.48;4.43;;;12.50;99.90;;;;;;5096785;28;20281;-55
2022/05/16 00:12:59;;;;;;;7.78;4.30;;;12.40;99.90;;;;;;5096341;28;20745;-58
2022/05/16 00:15:27;;;;;;;13.80;5.10;;;12.50;99.90;;;;;;5097263;28;20661;-57
2022/05/16 00:17:54;;;;;;;5.60;4.00;;;12.50;99.90;;;;;;5096931;28;20206;-57
2022/05/16 00:20:22;;;;;;;6.60;5.10;;;12.40;99.90;;;;;;5096822;28;20264;-57
2022/05/16 00:22:49;;;;;;;6.18;4.25;;;12.40;99.90;;;;;;5096689;28;20217;-57
2022/05/16 00:25:17;;;;;;;9.85;5.40;;;12.30;99.90;;;;;;5096710;28;20233;-56
2022/05/16 00:27:45;;;;;;;3.30;3.00;;;12.30;99.90;;;;;;5096827;28;20209;-57
2022/05/16 00:30:17;;;;;;;4.10;3.28;;;12.10;99.90;;;;;;5096171;28;20410;-58
2022/05/16 00:32:45;;;;;;;2.92;2.35;;;12.00;99.90;;;;;;5096630;28;20445;-58
2022/05/16 00:35:12;;;;;;;3.08;2.40;;;12.20;99.90;;;;;;5095997;28;20230;-55
2022/05/16 00:37:40;;;;;;;3.05;2.10;;;12.80;99.90;;;;;;5096379;28;20229;-57
2022/05/16 00:40:09;;;;;;;2.25;2.00;;;13.20;99.90;;;;;;5096258;28;20307;-54
2022/05/16 00:42:38;;;;;;;3.35;2.75;;;13.20;99.90;;;;;;5095607;28;20225;-55
2022/05/16 00:45:07;;;;;;;3.50;2.40;;;13.40;99.90;;;;;;5096037;28;20232;-58
2022/05/16 00:47:34;;;;;;;3.55;2.50;;;13.30;99.90;;;;;;5096751;28;20198;-55
2022/05/16 00:50:06;;;;;;;3.75;2.63;;;13.20;99.90;;;;;;5095905;28;20429;-55
2022/05/16 00:52:36;;;;;;;3.50;2.22;;;13.10;99.90;;;;;;5096196;28;20377;-55
2022/05/16 00:55:09;;;;;;;3.58;2.35;;;13.10;99.90;;;;;;5095901;28;20269;-56
2022/05/16 00:57:41;;;;;;;2.42;2.00;;;13.20;99.90;;;;;;5096425;28;20225;-55
2022/05/16 01:00:21;;;;;;;2.65;1.90;;;13.10;99.90;;;;;;5095854;28;20226;-59
2022/05/16 01:05:43;;;;;;;2.83;2.35;;;13.20;99.90;;;;;;5095955;28;20202;-56
2022/05/16 01:08:22;;;;;;;9.38;2.20;;;13.10;99.90;;;;;;5094963;28;20210;-56
2022/05/16 01:10:50;;;;;;;4.03;2.05;;;13.10;99.90;;;;;;5094557;28;20205;-58
2022/05/16 01:13:17;;;;;;;4.80;2.38;;;13.10;99.90;;;;;;5102397;28;20216;-57
2022/05/16 01:15:47;;;;;;;2.53;2.17;;;13.10;99.90;;;;;;5109442;28;20205;-58
2022/05/16 01:18:17;;;;;;;4.68;2.50;;;13.00;99.90;;;;;;5114887;28;20388;-53
2022/05/16 01:21:22;;;;;;;3.17;1.95;;;13.00;99.90;;;;;;5114599;28;20565;-54
2022/05/16 01:23:57;;;;;;;4.43;2.05;;;12.90;99.90;;;;;;5117061;28;20439;-56
2022/05/16 01:26:26;;;;;;;1.98;1.85;;;12.80;99.90;;;;;;5115145;28;20199;-55
2022/05/16 01:28:54;;;;;;;4.72;1.90;;;12.80;99.90;;;;;;5115882;28;20202;-56
2022/05/16 01:31:22;;;;;;;4.40;2.28;;;12.90;99.90;;;;;;5114648;28;20221;-56
2022/05/16 01:33:50;;;;;;;2.47;2.22;;;12.90;99.90;;;;;;5114457;28;20260;-54
2022/05/16 01:36:17;;;;;;;1.50;1.40;;;12.90;99.90;;;;;;5113957;28;20272;-55
2022/05/16 01:38:48;;;;;;;5.07;2.38;;;13.00;99.90;;;;;;5114996;28;20208;-54
2022/05/16 01:41:18;;;;;;;3.92;2.72;;;12.90;99.90;;;;;;5114213;28;20233;-55
2022/05/16 01:43:51;;;;;;;2.92;2.05;;;12.80;99.90;;;;;;5114605;28;20208;-54
2022/05/16 01:46:28;;;;;;;3.75;2.03;;;12.80;99.90;;;;;;5114442;28;20517;-56
2022/05/16 01:48:55;;;;;;;3.50;2.35;;;12.70;99.90;;;;;;5115113;28;20193;-56
2022/05/16 01:51:26;;;;;;;6.05;3.40;;;12.70;99.90;;;;;;5114805;28;20225;-57
2022/05/16 01:53:53;;;;;;;3.70;2.75;;;12.60;99.90;;;;;;5114969;28;20268;-57
2022/05/16 01:56:20;;;;;;;5.47;2.95;;;12.60;99.90;;;;;;5115903;28;20430;-56
2022/05/16 01:58:48;;;;;;;5.10;3.00;;;12.50;99.90;;;;;;5115437;28;20206;-55
2022/05/16 02:01:15;;;;;;;6.45;2.80;;;12.50;99.90;;;;;;5114857;28;20235;-57
2022/05/16 02:03:46;;;;;;;3.47;2.45;;;12.50;99.90;;;;;;5115078;28;20205;-57
2022/05/16 02:06:14;;;;;;;11.52;3.13;;;12.50;99.90;;;;;;5110312;28;20204;-56
2022/05/16 02:08:48;;;;;;;3.15;2.25;;;12.50;99.90;;;;;;5085376;28;20317;-55
2022/05/16 02:11:15;;;;;;;2.60;2.40;;;12.40;99.90;;;;;;5104563;28;20225;-55
2022/05/16 02:13:43;;;;;;;3.25;2.40;;;12.40;99.90;;;;;;5097884;28;20232;-55
2022/05/16 02:16:10;;;;;;;2.83;2.30;;;12.50;99.90;;;;;;5097544;28;20245;-54
2022/05/16 02:18:40;;;;;;;4.70;2.20;;;12.40;99.90;;;;;;5098249;28;20416;-57
2022/05/16 02:26:39;;;;;;;2.05;1.83;;;12.20;99.90;;;;;;5097749;28;20391;-53
2022/05/16 02:29:06;;;;;;;4.20;1.70;;;12.10;99.90;;;;;;5098050;28;20233;-53
2022/05/16 02:31:33;;;;;;;5.07;2.42;;;12.20;99.90;;;;;;5096518;28;20229;-57
2022/05/16 02:34:00;;;;;;;8.38;2.72;;;12.20;99.90;;;;;;5098135;28;20201;-56
2022/05/16 02:36:28;;;;;;;2.88;1.77;;;12.10;99.90;;;;;;5098394;28;20206;-57
2022/05/16 02:38:56;;;;;;;6.38;2.42;;;12.00;99.90;;;;;;5096581;28;20582;-59
2022/05/16 02:41:23;;;;;;;4.00;2.60;;;12.10;99.90;;;;;;5099813;28;20447;-57
2022/05/16 02:43:51;;;;;;;5.85;2.00;;;12.00;99.90;;;;;;5097534;28;20224;-54
2022/05/16 02:46:18;;;;;;;6.60;3.10;;;11.90;99.90;;;;;;5097962;28;20209;-55
2022/05/16 02:48:46;;;;;;;7.85;3.10;;;12.10;99.90;;;;;;5105221;28;20241;-55
2022/05/16 02:51:13;;;;;;;2.83;2.53;;;11.90;99.90;;;;;;5115647;28;20608;-55
2022/05/16 02:53:43;;;;;;;13.25;2.72;;;11.90;99.90;;;;;;5117629;28;20272;-55
2022/05/16 02:56:11;;;;;;;2.92;2.70;;;11.90;99.90;;;;;;5117794;28;20212;-56
2022/05/16 02:58:38;;;;;;;4.70;2.10;;;11.80;99.90;;;;;;5118206;28;20427;-54
2022/05/16 03:01:05;;;;;;;2.72;2.38;;;11.80;99.90;;;;;;5117294;28;20432;-57
2022/05/16 03:03:33;;;;;;;4.22;2.92;;;11.90;99.90;;;;;;5118402;28;20201;-58
2022/05/16 03:06:00;;;;;;;4.75;2.88;;;11.70;99.90;;;;;;5112436;28;20196;-56
2022/05/16 03:08:29;;;;;;;6.60;2.30;;;11.70;99.90;;;;;;5097941;28;20216;-54
2022/05/16 03:10:57;;;;;;;3.17;2.85;;;11.70;99.90;;;;;;5096901;28;20261;-56
2022/05/16 03:13:24;;;;;;;3.53;2.40;;;11.70;99.90;;;;;;5097608;28;20379;-55
2022/05/16 03:15:51;;;;;;;3.00;2.70;;;11.80;99.90;;;;;;5097509;28;20215;-55
2022/05/16 03:18:19;;;;;;;3.20;2.58;;;11.90;99.90;;;;;;5095709;28;20206;-56
2022/05/16 03:20:46;;;;;;;4.05;2.83;;;11.70;99.90;;;;;;5097052;28;20232;-54
2022/05/16 03:23:13;;;;;;;9.52;2.65;;;11.70;99.90;;;;;;5096978;28;20212;-55
2022/05/16 03:25:41;;;;;;;7.57;2.80;;;11.80;99.90;;;;;;5097354;28;20228;-58
2022/05/16 03:28:08;;;;;;;3.15;2.15;;;11.80;99.90;;;;;;5097027;28;20404;-51
2022/05/16 03:30:36;;;;;;;5.72;3.30;;;11.80;99.90;;;;;;5097211;28;20288;-55
2022/05/16 03:33:03;;;;;;;9.13;3.00;;;11.90;99.90;;;;;;5097078;28;20428;-53
2022/05/16 03:35:31;;;;;;;5.20;2.90;;;11.90;99.90;;;;;;5100617;28;20579;-55
2022/05/16 03:38:02;;;;;;;7.35;2.67;;;11.90;99.90;;;;;;5108914;28;20231;-54
2022/05/16 03:40:42;;;;;;;4.13;2.45;;;12.00;99.90;;;;;;5116672;28;20217;-54
2022/05/16 03:43:10;;;;;;;6.32;2.50;;;12.10;99.90;;;;;;5116762;28;20227;-59
2022/05/16 03:45:38;;;;;;;6.78;3.55;;;12.20;99.90;;;;;;5109580;28;20478;-53
2022/05/16 03:48:06;;;;;;;2.85;2.65;;;12.30;99.90;;;;;;5108888;28;20206;-57
2022/05/16 03:50:35;;;;;;;3.55;2.25;;;12.30;99.90;;;;;;5116923;28;20205;-55
2022/05/16 03:53:02;;;;;;;3.13;2.40;;;12.40;99.90;;;;;;5116656;28;20232;-56
2022/05/16 03:55:30;;;;;;;8.93;2.70;;;12.40;99.90;;;;;;5110829;28;20219;-56
2022/05/16 03:57:57;;;;;;;5.70;2.67;;;12.40;99.90;;;;;;5101463;28;20209;-56
2022/05/16 04:00:24;;;;;;;4.22;2.88;;;12.40;99.90;;;;;;5104268;28;20295;-57
2022/05/16 04:02:51;;;;;;;3.90;2.97;;;12.40;99.90;;;;;;5091565;28;20309;-56
2022/05/16 04:05:23;;;;;;;4.93;3.10;;;12.50;99.90;;;;;;5094576;28;20194;-56
2022/05/16 04:07:53;;;;;;;5.00;3.03;;;12.60;99.90;;;;;;5096051;28;20209;-56
2022/05/16 04:10:21;;;;;;;5.70;3.20;;;12.70;99.90;;;;;;5115549;28;20552;-56
2022/05/16 04:12:49;;;;;;;5.75;3.20;;;12.70;99.90;;;;;;5118202;28;20292;-54
2022/05/16 04:15:17;;;;;;;9.73;4.63;;;12.60;99.90;;;;;;5117174;28;20225;-55
2022/05/16 04:17:45;;;;;;;3.47;2.90;;;12.50;99.90;;;;;;5116761;28;20200;-55
2022/05/16 04:20:13;;;;;;;4.78;2.75;;;12.50;99.90;;;;;;5096696;28;20229;-54
2022/05/16 04:22:41;;;;;;;4.55;3.05;;;12.60;99.90;;;;;;5086180;28;20218;-58
2022/05/16 04:25:16;;;;;;;6.78;3.15;;;12.70;99.90;;;;;;5095567;28;20208;-54
2022/05/16 04:27:44;;;;;;;4.85;3.58;;;13.00;99.90;;;;;;5100993;28;20211;-56
2022/05/16 04:30:14;;;;;;;3.50;2.95;;;13.10;99.90;;;;;;5096794;28;20213;-55
2022/05/16 04:32:41;;;;;;;4.70;2.72;;;13.10;99.90;;;;;;5095793;28;20683;-53
2022/05/16 04:35:10;;;;;;;5.22;3.17;;;13.20;99.90;;;;;;5096158;28;20536;-53
2022/05/16 04:37:37;;;;;;;2.95;2.65;;;13.30;99.90;;;;;;5100607;28;20413;-58
2022/05/16 04:40:07;;;;;;;6.72;3.42;;;13.50;99.90;;;;;;5098379;28;20439;-55
2022/05/16 04:42:40;;;;;;;6.28;2.83;;;13.60;99.90;;;;;;5095155;28;20711;-56
2022/05/16 04:45:17;;;;;;;8.05;4.05;;;13.70;99.90;;;;;;5095523;28;20202;-56
2022/05/16 04:47:48;;;;;;;6.65;3.03;;;13.80;99.90;;;;;;5095248;28;20202;-57
2022/05/16 04:50:18;;;;;;;3.67;2.95;;;13.80;99.90;;;;;;5093901;28;20206;-57
2022/05/16 04:52:46;;;;;;;5.30;3.20;;;14.00;99.90;;;;;;5079141;28;21445;-54
2022/05/16 04:55:14;;;;;;;3.38;2.92;;;13.90;99.90;;;;;;5098843;28;20212;-58
2022/05/16 04:57:43;;;;;;;7.70;3.67;;;13.90;99.90;;;;;;5111046;28;20201;-57
2022/05/16 05:00:14;;;;;;;5.10;2.60;;;14.00;99.90;;;;;;5106654;28;20232;-55
2022/05/16 05:02:43;;;;;;;6.32;3.25;;;14.10;99.90;;;;;;5094428;28;20281;-56
2022/05/16 05:05:12;;;;;;;2.85;2.47;;;14.00;99.90;;;;;;5093808;28;20305;-55
2022/05/16 05:07:41;;;;;;;3.70;2.15;;;14.10;99.90;;;;;;5094777;28;20496;-53
2022/05/16 05:15:44;;;;;;;4.57;3.10;;;14.40;99.90;;;;;;5094332;28;20208;-55
2022/05/16 05:18:11;;;;;;;2.42;2.22;;;14.50;99.90;;;;;;5094901;28;20208;-57
2022/05/16 05:20:39;;;;;;;4.60;2.70;;;14.70;99.90;;;;;;5095558;28;20236;-57
2022/05/16 05:23:06;;;;;;;3.97;2.33;;;14.80;99.90;;;;;;5095911;28;20229;-55
2022/05/16 05:25:33;;;;;;;5.97;2.10;;;14.80;99.90;;;;;;5099895;28;20206;-54
2022/05/16 05:28:02;;;;;;;3.38;2.15;;;14.80;99.90;;;;;;5106774;28;20231;-52
2022/05/16 05:30:32;;;;;;;5.10;3.42;;;15.00;99.90;;;;;;5115103;28;20227;-56
2022/05/16 05:33:00;;;;;;;6.45;3.60;;;15.00;99.90;;;;;;5097014;28;20236;-56
2022/05/16 05:35:29;;;;;;;3.15;2.45;;;15.10;99.90;;;;;;5106497;28;20208;-55
2022/05/16 05:37:56;;;;;;;2.67;2.15;;;15.20;99.90;;;;;;5088639;28;20230;-55
2022/05/16 05:40:24;;;;;;;4.20;2.37;;;15.20;99.90;;;;;;5092488;28;20219;-55
2022/05/16 05:42:51;;;;;;;4.70;2.25;;;15.40;99.90;;;;;;5091019;28;20463;-59
2022/05/16 05:45:19;;;;;;;6.90;4.30;;;15.40;99.90;;;;;;5105705;28;20195;-55
2022/05/16 05:47:47;;;;;;;2.87;2.63;;;15.60;99.90;;;;;;5114717;28;20849;-58
2022/05/16 05:50:15;;;;;;;2.20;1.90;;;15.70;99.90;;;;;;5114150;28;20415;-58
2022/05/16 05:52:42;;;;;;;9.80;2.80;;;15.70;99.90;;;;;;5115537;28;20430;-53
2022/05/16 05:55:09;;;;;;;8.50;2.50;;;15.80;99.90;;;;;;5114846;28;20265;-52
2022/05/16 05:57:37;;;;;;;4.10;2.50;;;15.90;99.90;;;;;;5114898;28;20436;-58
2022/05/16 06:00:06;;;;;;;8.33;1.93;;;16.00;99.90;;;;;;5114868;28;20688;-57
2022/05/16 06:02:34;;;;;;;3.63;1.67;;;16.00;99.90;;;;;;5115227;28;20473;-56
2022/05/16 06:05:01;;;;;;;2.23;2.00;;;16.10;99.90;;;;;;5114470;28;20407;-60
2022/05/16 06:07:28;;;;;;;2.80;2.00;;;16.50;99.90;;;;;;5098554;28;20424;-55
2022/05/16 06:09:56;;;;;;;8.20;2.53;;;16.50;99.90;;;;;;5095703;28;20408;-56
2022/05/16 06:12:27;;;;;;;3.97;2.40;;;16.60;99.90;;;;;;5095078;28;20528;-55
2022/05/16 06:14:54;;;;;;;3.37;2.37;;;16.60;99.90;;;;;;5095424;28;20414;-55
2022/05/16 06:17:22;;;;;;;3.90;2.07;;;17.00;99.90;;;;;;5094948;28;20439;-54
2022/05/16 06:19:49;;;;;;;11.40;2.80;;;17.10;99.90;;;;;;5094717;28;20782;-56
2022/05/16 06:22:17;;;;;;;4.33;2.43;;;17.30;99.90;;;;;;5094801;28;20444;-56
2022/05/16 06:27:33;;;;;;;6.33;2.57;;;18.30;99.90;;;;;;5095478;28;20611;-56
2022/05/16 06:30:02;;;;;;;2.67;2.47;;;19.20;99.90;;;;;;5094648;28;20426;-56
2022/05/16 06:32:35;;;;;;;4.50;2.80;;;19.40;99.90;;;;;;5095043;28;20470;-58
2022/05/16 06:35:03;;;;;;;5.10;2.43;;;20.00;99.90;;;;;;5094508;28;20445;-54
2022/05/16 06:37:30;;;;;;;2.00;1.80;;;21.00;99.90;;;;;;5093984;28;20523;-55
2022/05/16 06:39:58;;;;;;;3.50;2.20;;;21.90;99.90;;;;;;5094356;28;20436;-56
2022/05/16 06:42:25;;;;;;;4.70;2.23;;;22.40;99.90;;;;;;5094272;28;20487;-56
2022/05/16 06:44:53;;;;;;;11.40;2.97;;;23.10;99.90;;;;;;5094834;28;20430;-57
2022/05/16 06:47:24;;;;;;;4.10;2.60;;;23.40;99.90;;;;;;5094300;28;20423;-55
2022/05/16 06:49:52;;;;;;;3.97;2.53;;;23.10;99.00;;;;;;5094203;28;20427;-56
2022/05/16 06:52:20;;;;;;;4.00;2.50;;;22.50;99.90;;;;;;5095829;28;20469;-59
2022/05/16 06:54:47;;;;;;;2.80;2.27;;;23.90;98.50;;;;;;5097737;28;20439;-57
2022/05/16 06:57:15;;;;;;;5.37;3.00;;;24.90;96.20;;;;;;5097622;28;20439;-56
2022/05/16 06:59:42;;;;;;;3.60;2.47;;;26.30;93.80;;;;;;5097010;28;20434;-51
2022/05/16 07:02:10;;;;;;;2.57;2.37;;;26.60;90.90;;;;;;5096988;28;20841;-56
2022/05/16 07:04:39;;;;;;;3.30;2.13;;;27.00;90.10;;;;;;5097871;28;20427;-57
2022/05/16 07:07:12;;;;;;;4.77;2.80;;;27.50;86.50;;;;;;5097087;28;20443;-56
2022/05/16 07:09:40;;;;;;;5.20;3.13;;;27.90;81.90;;;;;;5097755;28;20455;-57
2022/05/16 07:12:08;;;;;;;2.50;2.30;;;29.30;77.10;;;;;;5096486;28;20463;-55
2022/05/16 07:14:39;;;;;;;3.10;2.50;;;30.00;73.40;;;;;;5097353;28;20438;-57
2022/05/16 07:17:07;;;;;;;4.37;2.80;;;30.70;70.00;;;;;;5096637;28;20466;-58
2022/05/16 07:19:35;;;;;;;4.30;3.90;;;31.80;66.50;;;;;;5097243;28;20432;-54
2022/05/16 07:22:14;;;;;;;2.77;2.07;;;32.40;61.10;;;;;;5096507;28;20966;-55
2022/05/16 07:24:43;;;;;;;4.80;2.70;;;30.50;63.70;;;;;;5098128;28;20431;-54
2022/05/16 07:29:57;;;;;;;11.97;3.37;;;32.00;60.70;;;;;;5101565;28;20429;-55
2022/05/16 07:32:36;;;;;;;4.10;2.53;;;33.70;57.10;;;;;;5101272;28;20619;-58
2022/05/16 07:35:05;;;;;;;3.70;2.50;;;34.60;55.30;;;;;;5100953;28;20797;-58
2022/05/16 07:37:32;;;;;;;3.50;1.90;;;33.40;55.30;;;;;;5102284;28;20655;-62
2022/05/16 07:39:59;;;;;;;3.47;2.63;;;32.30;56.80;;;;;;5098425;28;20522;-57
2022/05/16 07:42:26;;;;;;;1.83;1.70;;;33.10;55.70;;;;;;5096668;28;20545;-59
2022/05/16 07:44:54;;;;;;;2.60;1.80;;;32.60;55.20;;;;;;5096473;28;20625;-55
2022/05/16 07:47:21;;;;;;;3.63;1.77;;;33.90;54.10;;;;;;5096650;28;20720;-58
2022/05/16 07:49:49;;;;;;;2.60;2.03;;;35.20;52.80;;;;;;5096977;28;20435;-57
2022/05/16 07:52:16;;;;;;;2.23;2.10;;;35.30;50.90;;;;;;5095115;28;20461;-56
2022/05/16 07:54:43;;;;;;;3.10;1.90;;;34.80;50.60;;;;;;5096539;28;20629;-58
2022/05/16 07:57:10;;;;;;;4.40;2.47;;;34.80;50.90;;;;;;5095718;28;20558;-56
2022/05/16 07:59:38;;;;;;;3.93;2.03;;;36.40;49.00;;;;;;5095703;28;20466;-58
2022/05/16 08:02:06;;;;;;;2.30;1.80;;;36.30;48.70;;;;;;5095978;28;20487;-57
2022/05/16 08:04:33;;;;;;;1.93;1.77;;;36.80;47.60;;;;;;5095179;28;20434;-58
2022/05/16 08:07:04;;;;;;;6.03;2.23;;;36.40;47.10;;;;;;5093389;28;20453;-58
2022/05/16 08:12:25;;;;;;;3.30;2.30;;;34.10;48.40;;;;;;5090402;28;20653;-57
2022/05/16 08:14:53;;;;;;;3.20;2.13;;;33.60;48.80;;;;;;5088586;28;20447;-55
2022/05/16 08:17:22;;;;;;;2.63;1.50;;;33.30;49.20;;;;;;5091532;28;20541;-56
2022/05/16 08:19:50;;;;;;;2.80;2.00;;;33.40;49.10;;;;;;5086577;28;20455;-57
2022/05/16 08:22:18;;;;;;;5.33;2.83;;;34.50;49.00;;;;;;5076025;28;20485;-56
2022/05/16 08:24:46;;;;;;;2.07;1.90;;;36.40;46.80;;;;;;5075949;28;20778;-57
2022/05/16 08:27:13;;;;;;;3.03;2.17;;;37.80;45.40;;;;;;5077576;28;20444;-56
2022/05/16 08:29:43;;;;;;;1.57;1.47;;;38.50;43.70;;;;;;5087168;28;20709;-57
2022/05/16 08:32:15;;;;;;;4.47;1.53;;;38.80;43.10;;;;;;5107079;28;20464;-55
2022/05/16 08:34:43;;;;;;;4.03;1.93;;;39.40;42.90;;;;;;5116051;28;20422;-55
2022/05/16 08:40:01;;;;;;;2.77;1.60;;;39.50;41.80;;;;;;5101273;28;20449;-58
2022/05/16 08:42:47;;;;;;;2.10;1.90;;;40.20;40.50;;;;;;5092453;28;20474;-56
2022/05/16 08:45:28;;;;;;;3.47;1.77;;;40.20;40.70;;;;;;5093343;28;20754;-54
2022/05/16 08:48:22;;;;;;;5.63;2.20;;;40.20;40.10;;;;;;5095287;28;20437;-59
2022/05/16 08:50:57;;;;;;;2.60;1.90;;;37.60;42.30;;;;;;5101840;28;20509;-52
2022/05/16 08:53:42;;;;;;;2.63;1.70;;;36.70;43.70;;;;;;5106442;28;20472;-55
2022/05/16 08:56:12;;;;;;;4.20;1.87;;;36.30;43.20;;;;;;5115983;28;20433;-55
2022/05/16 08:58:47;;;;;;;3.43;1.60;;;36.90;42.80;;;;;;5114689;28;20448;-56
2022/05/16 09:01:17;;;;;;;2.30;2.07;;;38.10;42.50;;;;;;5114841;28;20626;-56
2022/05/16 09:03:47;;;;;;;1.50;1.30;;;38.20;41.00;;;;;;5115720;28;20429;-55
2022/05/16 09:06:42;;;;;;;1.63;1.50;;;38.10;41.10;;;;;;5108014;28;20434;-53
2022/05/16 09:09:15;;;;;;;5.33;2.07;;;38.30;40.10;;;;;;5094590;28;20427;-56
2022/05/16 09:11:58;;;;;;;2.50;1.80;;;38.70;40.50;;;;;;5094356;28;20465;-56
2022/05/16 09:14:35;;;;;;;1.47;1.37;;;39.30;39.90;;;;;;5094292;28;20434;-52
2022/05/16 09:17:38;;;;;;;3.87;1.40;;;39.50;38.80;;;;;;5095050;28;20459;-55
2022/05/16 09:20:14;;;;;;;1.90;1.80;;;38.20;40.20;;;;;;5095043;28;20478;-56
2022/05/16 09:22:52;;;;;;;2.00;1.67;;;38.80;40.40;;;;;;5094771;28;21029;-50
2022/05/16 09:25:23;;;;;;;4.17;2.17;;;37.90;39.30;;;;;;5095319;28;20525;-53
2022/05/16 09:30:45;;;;;;;2.10;1.70;;;34.60;42.50;;;;;;5095294;28;20510;-49
2022/05/16 09:33:18;;;;;;;3.30;1.20;;;30.90;47.10;;;;;;5093994;28;20478;-52
2022/05/16 09:36:06;;;;;;;3.33;1.90;;;28.80;48.80;;;;;;5095251;28;20494;-53
2022/05/16 09:38:33;;;;;;;21.37;2.03;;;27.00;52.10;;;;;;5094598;28;20435;-51
2022/05/16 09:41:03;;;;;;;1.43;1.20;;;25.50;54.40;;;;;;5094747;28;20619;-52
2022/05/16 09:43:34;;;;;;;1.50;1.17;;;25.00;55.70;;;;;;5095191;28;20540;-51
2022/05/16 09:46:23;;;;;;;2.97;1.60;;;24.70;56.20;;;;;;5095681;28;20492;-52
2022/05/16 09:49:04;;;;;;;1.97;1.50;;;24.20;57.00;;;;;;5095243;28;20452;-52
2022/05/16 09:51:45;;;;;;;8.40;1.87;;;24.10;57.70;;;;;;5096085;28;20451;-54
2022/05/16 09:54:36;;;;;;;1.83;1.30;;;24.00;58.30;;;;;;5096622;28;20928;-54
2022/05/16 09:57:04;;;;;;;1.27;1.17;;;23.90;58.30;;;;;;5095695;28;20806;-55
2022/05/16 09:59:42;;;;;;;3.63;1.93;;;24.10;57.70;;;;;;5094793;28;20685;-52
2022/05/16 10:02:18;;;;;;;2.00;1.23;;;24.60;57.60;;;;;;5094778;28;20475;-49
2022/05/16 10:04:57;;;;;;;3.57;1.53;;;24.80;56.80;;;;;;5093784;28;20431;-52
2022/05/16 10:07:32;;;;;;;4.70;2.10;;;24.70;56.80;;;;;;5094791;28;20451;-50
2022/05/16 10:09:59;;;;;;;9.87;1.73;;;24.60;56.40;;;;;;5094589;28;20758;-53
2022/05/16 10:12:28;;;;;;;2.67;1.80;;;24.60;56.40;;;;;;5094474;28;20547;-54
2022/05/16 10:14:55;;;;;;;1.23;1.10;;;24.60;57.00;;;;;;5094209;28;20714;-51
2022/05/16 10:17:34;;;;;;;1.53;1.33;;;25.00;56.50;;;;;;5094340;28;20438;-47
2022/05/16 10:20:17;;;;;;;2.97;2.00;;;25.00;56.40;;;;;;5094626;28;20435;-55
2022/05/16 10:22:46;;;;;;;1.50;1.40;;;24.80;55.80;;;;;;5093759;28;20482;-54
2022/05/16 10:25:43;;;;;;;1.97;1.47;;;24.80;55.70;;;;;;5094042;28;20419;-51
2022/05/16 10:28:26;;;;;;;1.53;1.43;;;24.90;55.80;;;;;;5097090;28;20467;-52
2022/05/16 10:33:44;;;;;;;2.17;1.50;;;25.60;56.60;;;;;;5096490;28;20476;-54
2022/05/16 10:36:26;;;;;;;1.40;1.30;;;25.60;55.00;;;;;;5097758;28;20445;-53
2022/05/16 10:39:05;;;;;;;1.47;1.30;;;25.40;55.30;;;;;;5097508;28;20784;-53
2022/05/16 10:41:59;;;;;;;2.00;1.43;;;25.20;55.30;;;;;;5096515;28;20456;-51
2022/05/16 10:44:40;;;;;;;1.30;1.20;;;24.90;56.20;;;;;;5097817;28;20649;-51
2022/05/16 10:47:28;;;;;;;5.63;2.00;;;25.10;55.40;;;;;;5097282;28;20670;-51
2022/05/16 10:50:24;;;;;;;2.00;1.33;;;24.40;56.30;;;;;;5096017;28;20916;-52
2022/05/16 10:53:16;;;;;;;2.20;1.77;;;24.10;57.50;;;;;;5094150;28;20532;-50
2022/05/16 10:56:10;;;;;;;1.53;1.27;;;24.10;56.90;;;;;;5098605;28;20438;-56
2022/05/16 10:58:48;;;;;;;1.40;1.30;;;24.00;57.50;;;;;;5098266;28;20444;-53
2022/05/16 11:01:23;;;;;;;1.97;1.30;;;23.90;57.30;;;;;;5097796;28;20458;-56
2022/05/16 11:04:05;;;;;;;2.23;1.60;;;23.90;57.30;;;;;;5097409;28;20520;-52
2022/05/16 11:07:10;;;;;;;1.80;1.50;;;23.90;57.80;;;;;;5097397;28;20507;-52
2022/05/16 11:09:45;;;;;;;3.77;1.67;;;24.00;57.80;;;;;;5101915;28;20469;-51
2022/05/16 11:12:21;;;;;;;2.30;1.80;;;24.20;57.80;;;;;;5102937;28;20466;-53
2022/05/16 11:15:27;;;;;;;1.87;1.60;;;24.20;57.00;;;;;;5100764;28;20435;-54
2022/05/16 11:18:12;;;;;;;4.10;1.67;;;24.20;56.70;;;;;;5100683;28;20478;-49
2022/05/16 11:20:51;;;;;;;9.97;2.80;;;24.20;58.40;;;;;;5102278;28;20439;-55
2022/05/16 11:23:34;;;;;;;1.83;1.50;;;24.50;57.10;;;;;;5099941;28;20930;-51
2022/05/16 11:26:13;;;;;;;2.07;1.50;;;24.60;56.90;;;;;;5099104;28;20461;-54
2022/05/16 11:31:56;;;;;;;3.80;1.90;;;24.40;57.30;;;;;;5101649;28;20457;-53
2022/05/16 11:34:49;;;;;;;2.10;1.50;;;24.40;56.00;;;;;;5097081;28;20495;-50
2022/05/16 11:37:35;;;;;;;2.40;1.33;;;24.20;57.00;;;;;;5087309;28;20449;-52
2022/05/16 11:40:10;;;;;;;3.37;1.30;;;24.30;56.70;;;;;;5096419;28;20442;-54
2022/05/16 11:43:04;;;;;;;1.47;1.10;;;24.30;56.90;;;;;;5097627;28;20473;-53
2022/05/16 11:45:57;;;;;;;2.50;1.57;;;23.90;56.70;;;;;;5097572;28;20464;-49
2022/05/16 11:48:38;;;;;;;6.20;2.33;;;23.60;56.90;;;;;;5096786;28;20506;-48
2022/05/16 11:51:26;;;;;;;2.43;1.87;;;23.30;57.80;;;;;;5096657;28;20482;-50
2022/05/16 11:54:00;;;;;;;3.97;1.30;;;23.20;57.70;;;;;;5095994;28;20872;-49
2022/05/16 12:02:29;;;;;;;12.13;2.77;;;23.60;57.60;;;;;;5095798;28;20489;-50
2022/05/16 12:05:09;;;;;;;1.03;1.03;;;23.50;57.90;;;;;;5095981;28;20486;-51
2022/05/16 12:07:36;;;;;;;1.50;1.40;;;23.50;57.00;;;;;;5095179;28;20443;-51
2022/05/16 12:10:15;;;;;;;2.83;1.60;;;23.40;57.20;;;;;;5096419;28;20441;-47
2022/05/16 12:12:46;;;;;;;1.63;1.27;;;23.60;58.50;;;;;;5096232;28;20523;-49
2022/05/16 12:15:17;;;;;;;4.90;1.40;;;23.70;57.60;;;;;;5096702;28;20427;-54
2022/05/16 12:18:28;;;;;;;4.53;1.73;;;23.70;55.90;;;;;;5096226;28;20474;-51
2022/05/16 12:21:04;;;;;;;4.77;1.70;;;24.00;56.60;;;;;;5096294;28;20533;-57
2022/05/16 12:23:44;;;;;;;3.10;1.53;;;24.20;55.70;;;;;;5095819;28;20825;-55
2022/05/16 12:26:12;;;;;;;1.23;1.13;;;24.50;55.40;;;;;;5096721;28;20494;-55
2022/05/16 12:28:39;;;;;;;1.67;1.57;;;24.50;52.70;;;;;;5096976;28;20435;-51
2022/05/16 12:31:09;;;;;;;1.50;1.40;;;24.20;53.30;;;;;;5096326;28;20498;-53
2022/05/16 12:33:42;;;;;;;2.37;1.27;;;24.20;53.90;;;;;;5095984;28;20431;-55
2022/05/16 12:36:19;;;;;;;1.20;1.03;;;24.20;52.70;;;;;;5096243;28;20427;-54
2022/05/16 12:38:53;;;;;;;3.50;1.63;;;24.10;52.50;;;;;;5096444;28;20443;-51
2022/05/16 12:41:44;;;;;;;1.63;1.43;;;24.10;52.60;;;;;;5096641;28;20513;-50
2022/05/16 12:44:36;;;;;;;1.30;1.20;;;24.30;52.70;;;;;;5094870;28;20499;-53
2022/05/16 12:47:36;;;;;;;3.10;1.60;;;24.20;51.60;;;;;;5096376;28;20537;-52
2022/05/16 12:50:15;;;;;;;1.63;1.53;;;24.20;52.70;;;;;;5095603;28;20449;-53
2022/05/16 12:52:48;;;;;;;1.57;1.47;;;24.40;52.00;;;;;;5095920;28;20842;-52
2022/05/16 12:55:47;;;;;;;1.80;1.33;;;24.40;52.40;;;;;;5095652;28;20435;-56
2022/05/16 12:58:28;;;;;;;3.00;1.13;;;24.50;53.50;;;;;;5072432;28;20424;-54
2022/05/16 13:01:04;;;;;;;3.93;2.03;;;24.80;53.50;;;;;;5095730;28;20439;-55
2022/05/16 13:04:06;;;;;;;1.90;1.50;;;25.10;52.90;;;;;;5095397;28;20474;-55
2022/05/16 13:06:40;;;;;;;2.03;1.30;;;25.10;51.90;;;;;;5093987;28;20439;-54
2022/05/16 13:09:30;;;;;;;2.80;1.47;;;25.00;52.30;;;;;;5093346;28;20769;-56
2022/05/16 13:12:19;;;;;;;1.57;1.20;;;25.00;51.80;;;;;;5094749;28;20490;-56
2022/05/16 13:14:50;;;;;;;2.10;1.63;;;24.90;52.80;;;;;;5095862;28;20515;-53
2022/05/16 13:17:44;;;;;;;1.60;1.50;;;24.90;52.20;;;;;;5094892;28;20531;-57
2022/05/16 13:20:18;;;;;;;1.33;1.23;;;24.90;51.60;;;;;;5089584;28;20481;-57
2022/05/16 13:22:48;;;;;;;2.57;1.10;;;24.80;51.70;;;;;;5095020;28;20501;-57
2022/05/16 13:25:19;;;;;;;2.93;1.73;;;24.60;52.20;;;;;;5095199;28;20431;-57
2022/05/16 13:30:37;;;;;;;1.60;1.50;;;24.00;52.50;;;;;;5095323;28;20433;-53
2022/05/16 13:33:19;;;;;;;1.80;1.47;;;24.00;54.50;;;;;;5094378;28;20497;-55
2022/05/16 13:35:47;;;;;;;3.00;1.63;;;23.90;55.00;;;;;;5095604;28;20609;-54
2022/05/16 13:38:15;;;;;;;4.23;2.07;;;23.90;55.50;;;;;;5104903;28;20502;-56
2022/05/16 13:40:44;;;;;;;1.77;1.63;;;23.90;55.40;;;;;;5094140;28;20668;-55
2022/05/16 13:43:23;;;;;;;1.50;1.40;;;23.90;55.60;;;;;;5083509;28;20483;-54
2022/05/16 13:46:06;;;;;;;4.67;2.30;;;24.00;56.20;;;;;;5082560;28;20481;-55
2022/05/16 13:48:34;;;;;;;1.80;1.53;;;24.30;55.70;;;;;;5082065;28;20549;-54
2022/05/16 13:51:02;;;;;;;2.77;1.90;;;24.40;53.00;;;;;;5081784;28;20861;-57
2022/05/16 13:53:31;;;;;;;2.93;1.77;;;24.60;53.70;;;;;;5085662;28;20506;-59
2022/05/16 13:55:59;;;;;;;1.80;1.70;;;24.80;52.80;;;;;;5081683;28;20443;-54